Time;durP1;ratioP1;P1;durP2;ratioP2;P2;SDS_P1;SDS_P2;PMS_P1;PMS_P2;Temp;Humidity;BMP_temperature;BMP_pressure;BME280_temperature;BME280_humidity;BME280_pressure;Samples;Min_cycle;Max_cycle;Signal;HPM_P1;HPM_P2
2022/12/25 00:02:17;;;;;;;18.13;11.60;;;;;;;7.41;100.00;101478.06;5100722;29;20106;-71
2022/12/25 00:04:47;;;;;;;25.95;12.90;;;;;;;7.43;100.00;101485.91;5104042;29;20078;-70
2022/12/25 00:07:17;;;;;;;14.20;12.98;;;;;;;6.93;100.00;101393.78;5105143;29;20027;-71
2022/12/25 00:09:48;;;;;;;13.75;12.32;;;;;;;7.31;100.00;101450.84;5088116;29;20057;-71
2022/12/25 00:12:19;;;;;;;12.50;11.43;;;;;;;7.48;100.00;101477.19;5104539;29;20057;-70
2022/12/25 00:14:50;;;;;;;20.95;12.07;;;;;;;7.51;100.00;101490.19;5105162;29;20028;-73
2022/12/25 00:17:20;;;;;;;18.67;11.68;;;;;;;7.53;100.00;101480.00;5088158;29;20083;-70
2022/12/25 00:19:50;;;;;;;17.23;10.50;;;;;;;7.58;100.00;101472.13;5105144;29;20067;-70
2022/12/25 00:22:21;;;;;;;12.65;11.40;;;;;;;7.49;100.00;101457.34;5104805;29;20027;-70
2022/12/25 00:24:51;;;;;;;13.88;11.90;;;;;;;7.37;100.00;101433.88;5104707;29;20019;-70
2022/12/25 00:27:22;;;;;;;11.40;10.50;;;;;;;7.57;100.00;101455.16;5104794;29;20491;-70
2022/12/25 00:29:52;;;;;;;18.25;9.77;;;;;;;7.61;100.00;101469.00;5105019;29;20044;-70
2022/12/25 00:32:22;;;;;;;8.63;8.02;;;;;;;7.59;100.00;101468.38;5105775;29;20032;-70
2022/12/25 00:34:53;;;;;;;17.80;10.10;;;;;;;7.63;100.00;101474.97;5105927;29;20060;-70
2022/12/25 00:37:23;;;;;;;11.98;10.85;;;;;;;7.63;100.00;101469.59;5105635;29;20079;-70
2022/12/25 00:39:53;;;;;;;11.75;10.55;;;;;;;7.65;100.00;101462.13;5104782;29;20024;-70
2022/12/25 00:42:25;;;;;;;12.13;11.05;;;;;;;7.67;100.00;101462.72;5104413;29;20083;-70
2022/12/25 00:44:56;;;;;;;23.55;11.45;;;;;;;7.66;100.00;101456.53;5104593;29;20055;-70
2022/12/25 00:47:26;;;;;;;13.68;10.48;;;;;;;7.67;100.00;101460.03;5104569;29;20445;-70
2022/12/25 00:49:56;;;;;;;17.90;11.80;;;;;;;7.51;100.00;101436.44;5104286;29;20405;-70
2022/12/25 00:52:27;;;;;;;15.32;10.90;;;;;;;7.68;100.00;101467.06;5103930;29;20396;-70
2022/12/25 00:54:57;;;;;;;10.45;9.40;;;;;;;7.44;100.00;101426.56;5103692;29;20063;-70
2022/12/25 00:57:27;;;;;;;12.68;9.70;;;;;;;7.71;100.00;101456.69;5104277;29;20032;-70
2022/12/25 00:59:58;;;;;;;13.02;11.68;;;;;;;7.72;100.00;101458.34;5103936;29;20026;-71
2022/12/25 01:02:28;;;;;;;10.18;9.30;;;;;;;7.73;100.00;101453.78;5104170;29;20083;-70
2022/12/25 01:04:59;;;;;;;14.07;9.85;;;;;;;7.75;100.00;101454.38;5104046;29;20481;-70
2022/12/25 01:07:29;;;;;;;19.90;10.88;;;;;;;7.76;100.00;101442.59;5087249;29;20026;-70
2022/12/25 01:12:50;;;;;;;16.23;10.60;;;;;;;7.79;100.00;101442.16;5103535;29;20043;-70
2022/12/25 01:15:20;;;;;;;10.32;9.07;;;;;;;7.69;100.00;101441.84;5103974;29;20103;-70
2022/12/25 01:17:50;;;;;;;13.88;10.75;;;;;;;7.83;100.00;101454.06;5086911;29;20038;-70
2022/12/25 01:20:21;;;;;;;10.23;7.88;;;;;;;7.85;100.00;101453.84;5104025;29;20030;-71
2022/12/25 01:22:52;;;;;;;11.38;8.60;;;;;;;7.81;100.00;101445.41;5086319;29;20031;-69
2022/12/25 01:25:22;;;;;;;15.88;8.80;;;;;;;7.88;100.00;101456.91;5086728;29;20028;-71
2022/12/25 01:27:52;;;;;;;9.75;8.95;;;;;;;7.91;100.00;101453.78;5103999;29;20237;-69
2022/12/25 01:30:23;;;;;;;10.07;7.03;;;;;;;7.97;100.00;101454.75;5103857;29;20031;-71
2022/12/25 01:32:53;;;;;;;12.90;7.28;;;;;;;8.00;100.00;101460.53;5086441;29;20477;-70
2022/12/25 01:35:24;;;;;;;17.15;10.40;;;;;;;7.97;100.00;101460.16;5103817;29;20032;-71
2022/12/25 01:37:54;;;;;;;8.85;7.80;;;;;;;8.01;100.00;101461.34;5104464;29;20028;-71
2022/12/25 01:40:24;;;;;;;7.43;6.82;;;;;;;8.05;100.00;101473.31;5105192;29;20106;-71
2022/12/25 01:42:55;;;;;;;8.20;7.32;;;;;;;8.08;100.00;101475.53;5088403;29;20043;-71
2022/12/25 01:45:39;;;;;;;7.07;6.53;;;;;;;8.04;100.00;101469.78;5105321;29;20024;-69
2022/12/25 01:48:18;;;;;;;14.40;8.27;;;;;;;8.08;100.00;101473.66;5106352;29;20404;-71
2022/12/25 01:50:57;;;;;;;11.05;6.80;;;;;;;8.07;100.00;101477.41;5105829;29;20031;-72
2022/12/25 01:53:28;;;;;;;8.07;6.43;;;;;;;8.03;100.00;101472.69;5105614;29;20035;-71
2022/12/25 01:56:04;;;;;;;11.27;6.95;;;;;;;8.05;100.00;101482.19;5107148;29;20024;-71
2022/12/25 01:58:34;;;;;;;8.85;7.25;;;;;;;7.87;100.00;101451.75;5107994;29;20079;-70
2022/12/25 02:01:05;;;;;;;7.85;5.65;;;;;;;8.05;100.00;101490.25;5108272;29;20028;-71
2022/12/25 02:03:35;;;;;;;7.78;6.70;;;;;;;8.06;100.00;101489.22;5107931;29;20034;-71
2022/12/25 02:06:06;;;;;;;17.60;5.75;;;;;;;8.09;100.00;101485.22;5108262;29;20099;-71
2022/12/25 02:08:37;;;;;;;11.13;6.85;;;;;;;8.08;100.00;101495.16;5108907;29;20028;-71
2022/12/25 02:11:55;;;;;;;7.50;6.35;;;;;;;8.08;100.00;101495.16;5109671;29;20032;-73
2022/12/25 02:13:58;;;;;;;8.00;7.25;;;;;;;8.05;100.00;101501.03;5111586;29;20412;-72
2022/12/25 02:16:34;;;;;;;13.40;5.90;;;;;;;8.05;100.00;101505.56;5112477;29;20054;-72
2022/12/25 02:19:37;;;;;;;5.97;5.50;;;;;;;8.06;100.00;101510.75;5112394;29;20072;-72
2022/12/25 02:22:22;;;;;;;7.18;5.50;;;;;;;8.07;100.00;101514.25;5089923;29;20036;-72
2022/12/25 02:25:34;;;;;;;7.13;5.60;;;;;;;8.05;100.00;101506.41;5111146;29;20090;-72
2022/12/25 02:28:11;;;;;;;10.27;6.68;;;;;;;8.04;100.00;101498.56;5050222;29;20092;-72
2022/12/25 02:30:50;;;;;;;8.52;6.38;;;;;;;8.05;100.00;101492.94;5105762;29;20040;-70
2022/12/25 02:36:25;;;;;;;6.57;6.07;;;;;;;8.06;100.00;101496.47;5110780;29;20458;-72
2022/12/25 02:40:00;;;;;;;7.32;4.63;;;;;;;8.05;100.00;101495.66;5110669;29;20034;-72
2022/12/25 02:42:03;;;;;;;6.30;5.60;;;;;;;8.01;100.00;101490.94;5105568;29;20038;-72
2022/12/25 03:07:20;;;;;;;6.00;5.40;;;;;;;8.10;100.00;101443.84;5108830;29;20098;-72
2022/12/25 03:13:15;;;;;;;11.93;5.57;;;;;;;8.14;100.00;101429.72;5108803;29;20035;-72
2022/12/25 03:18:36;;;;;;;6.85;5.38;;;;;;;8.14;100.00;101424.34;5109191;29;20031;-72
2022/12/25 03:32:48;;;;;;;;;;;;;;;8.15;100.00;101395.56;5112580;29;20042;-70
2022/12/25 03:35:44;;;;;;;6.07;5.38;;;;;;;8.10;100.00;101398.94;5092925;29;20058;-71
2022/12/25 04:38:23;;;;;;;6.30;5.70;;;;;;;7.93;100.00;101383.66;5123881;29;20067;-81
2022/12/25 04:40:54;;;;;;;6.13;5.38;;;;;;;7.69;100.00;101339.69;5105590;29;20047;-82
2022/12/25 04:43:24;;;;;;;6.05;5.55;;;;;;;7.93;100.00;101376.41;5104891;29;20032;-80
2022/12/25 04:45:57;;;;;;;10.00;6.40;;;;;;;7.91;100.00;101375.81;5104456;29;20032;-82
2022/12/25 04:48:30;;;;;;;5.22;4.80;;;;;;;7.79;100.00;101350.72;5121909;29;20035;-82
2022/12/25 04:51:21;;;;;;;12.15;4.28;;;;;;;7.94;100.00;101375.34;5122305;29;20086;-80
2022/12/25 04:53:52;;;;;;;9.25;6.07;;;;;;;7.76;100.00;101340.44;5119988;29;20478;-80
2022/12/25 04:56:23;;;;;;;6.72;6.13;;;;;;;7.63;100.00;101322.56;5104491;29;20028;-82
2022/12/25 04:58:54;;;;;;;5.07;4.57;;;;;;;7.78;100.00;101335.66;5121650;29;20028;-81
2022/12/25 05:01:25;;;;;;;5.25;4.60;;;;;;;7.76;100.00;101335.06;5105290;29;20091;-81
2022/12/25 05:03:55;;;;;;;4.80;4.50;;;;;;;7.82;100.00;101339.50;5121382;29;20525;-81
2022/12/25 05:06:26;;;;;;;9.98;5.45;;;;;;;7.98;100.00;101356.91;5104649;29;20032;-81
2022/12/25 05:08:57;;;;;;;4.97;4.53;;;;;;;7.99;100.00;101356.69;5121871;29;20035;-81
2022/12/25 05:11:27;;;;;;;6.10;5.55;;;;;;;8.00;100.00;101341.38;5120740;29;20027;-83
2022/12/25 05:13:57;;;;;;;5.30;4.75;;;;;;;7.68;100.00;101287.78;5121042;29;20036;-82
2022/12/25 05:16:28;;;;;;;9.40;4.75;;;;;;;7.69;100.00;101292.13;5121706;29;20096;-82
2022/12/25 05:18:58;;;;;;;24.83;5.90;;;;;;;7.88;100.00;101327.03;5120278;29;20024;-81
2022/12/25 05:21:29;;;;;;;11.07;5.15;;;;;;;7.89;100.00;101325.97;5121475;29;20052;-82
2022/12/25 05:23:59;;;;;;;6.78;4.38;;;;;;;7.96;100.00;101335.63;5121130;29;20080;-81
2022/12/25 05:26:30;;;;;;;6.63;4.90;;;;;;;8.01;100.00;101349.19;5119604;29;20022;-81
2022/12/25 05:29:00;;;;;;;13.50;5.40;;;;;;;7.99;100.00;101337.03;5118384;29;20083;-80
2022/12/25 05:31:31;;;;;;;6.45;5.80;;;;;;;7.85;100.00;101312.16;5119494;29;20508;-80
2022/12/25 05:34:02;;;;;;;9.35;4.55;;;;;;;8.03;100.00;101336.34;5102215;29;20046;-81
2022/12/25 05:36:32;;;;;;;5.13;4.72;;;;;;;7.99;100.00;101315.50;5119278;29;20024;-81
2022/12/25 05:39:03;;;;;;;4.57;4.28;;;;;;;7.66;100.00;101263.00;5102641;29;20028;-80
2022/12/25 05:41:33;;;;;;;5.45;4.95;;;;;;;7.80;100.00;101280.56;5120646;29;20042;-81
2022/12/25 05:44:04;;;;;;;4.13;3.83;;;;;;;8.05;100.00;101320.81;5120460;29;20063;-82
2022/12/25 05:46:34;;;;;;;5.93;4.40;;;;;;;7.57;100.00;101234.78;5101898;29;20020;-81
2022/12/25 05:49:05;;;;;;;5.45;5.05;;;;;;;8.04;100.00;101303.03;5120169;29;20044;-81
2022/12/25 05:51:35;;;;;;;5.28;4.82;;;;;;;7.61;100.00;101241.34;5119407;29;20057;-82
2022/12/25 05:54:06;;;;;;;6.57;4.57;;;;;;;8.04;100.00;101303.03;5121195;29;20032;-81
2022/12/25 05:56:37;;;;;;;8.10;5.85;;;;;;;7.88;100.00;101270.56;5103397;29;20040;-81
2022/12/25 05:59:07;;;;;;;7.22;5.97;;;;;;;8.05;100.00;101290.41;5121234;29;20046;-82
2022/12/25 06:01:38;;;;;;;6.95;6.25;;;;;;;7.72;100.00;101242.47;5120790;29;20055;-81
2022/12/25 06:04:08;;;;;;;6.75;4.43;;;;;;;8.05;100.00;101296.59;5120455;29;20028;-82
2022/12/25 06:06:39;;;;;;;7.65;4.70;;;;;;;8.06;100.00;101292.88;5121332;29;20050;-82
2022/12/25 06:09:11;;;;;;;5.50;4.88;;;;;;;8.00;100.00;101284.88;5104801;29;20027;-81
2022/12/25 06:11:53;;;;;;;5.72;5.00;;;;;;;7.71;100.00;101236.25;5121842;29;20032;-84
2022/12/25 06:14:24;;;;;;;8.35;5.00;;;;;;;7.51;100.00;101190.00;5118852;29;20056;-80
2022/12/25 06:16:54;;;;;;;11.00;6.55;;;;;;;7.99;100.00;101254.47;5119190;29;20027;-81
2022/12/25 06:19:25;;;;;;;7.72;3.83;;;;;;;7.97;100.00;101245.81;5119177;29;20069;-80
2022/12/25 06:21:55;;;;;;;4.88;4.50;;;;;;;7.90;100.00;101234.31;5118688;29;20031;-81
2022/12/25 06:24:26;;;;;;;4.45;4.15;;;;;;;8.04;100.00;101233.09;5118985;29;20028;-81
2022/12/25 06:26:56;;;;;;;3.80;3.60;;;;;;;7.98;100.00;101220.56;5121105;29;20028;-82
2022/12/25 06:29:27;;;;;;;6.03;4.05;;;;;;;8.05;100.00;101215.09;5120698;29;20191;-82
2022/12/25 06:31:57;;;;;;;9.23;4.57;;;;;;;8.00;100.00;101199.66;5120635;29;20031;-82
2022/12/25 06:34:28;;;;;;;5.00;4.63;;;;;;;8.00;100.00;101196.13;5104248;29;20026;-81
2022/12/25 06:36:59;;;;;;;6.90;4.65;;;;;;;7.76;100.00;101152.25;5119612;29;20031;-82
2022/12/25 06:39:29;;;;;;;10.70;4.43;;;;;;;7.94;100.00;101187.13;5120567;29;20032;-82
2022/12/25 06:42:00;;;;;;;4.53;3.92;;;;;;;7.92;100.00;101167.69;5120706;29;20028;-82
2022/12/25 06:44:32;;;;;;;12.60;4.93;;;;;;;7.87;100.00;101154.13;5120477;29;20031;-82
2022/12/25 06:47:02;;;;;;;4.57;4.28;;;;;;;8.05;100.00;101193.56;5103996;29;20110;-82
2022/12/25 06:49:34;;;;;;;5.68;4.57;;;;;;;8.05;100.00;101182.81;5119621;29;20056;-82
2022/12/25 06:52:04;;;;;;;4.32;3.92;;;;;;;7.84;100.00;101141.13;5120587;29;20034;-81
2022/12/25 06:54:35;;;;;;;5.85;4.78;;;;;;;7.95;100.00;101178.00;5120700;29;20114;-82
2022/12/25 06:57:05;;;;;;;10.15;6.28;;;;;;;7.47;100.00;101105.53;5103398;29;20038;-80
2022/12/25 06:59:35;;;;;;;6.43;5.15;;;;;;;7.97;100.00;101178.59;5123093;29;20027;-82
2022/12/25 07:02:15;;;;;;;5.30;4.68;;;;;;;8.08;100.00;101195.81;5106033;29;20024;-82
2022/12/25 07:04:46;;;;;;;5.72;3.92;;;;;;;8.08;100.00;101203.88;5124367;29;20023;-82
2022/12/25 07:07:17;;;;;;;5.20;4.75;;;;;;;8.09;100.00;101200.94;5106653;29;20019;-80
2022/12/25 07:09:47;;;;;;;6.55;4.50;;;;;;;8.08;100.00;101188.53;5123138;29;20490;-81
2022/12/25 07:12:20;;;;;;;5.10;4.60;;;;;;;8.09;100.00;101194.72;5122388;29;20043;-80
2022/12/25 07:14:53;;;;;;;5.53;4.82;;;;;;;7.73;100.00;101161.59;5105063;29;20030;-80
2022/12/25 07:17:24;;;;;;;5.20;4.78;;;;;;;8.10;100.00;101196.38;5122607;29;20039;-81
2022/12/25 07:19:55;;;;;;;4.35;4.05;;;;;;;7.90;100.00;101164.41;5108572;29;20041;-81
2022/12/25 07:22:27;;;;;;;4.43;4.22;;;;;;;8.08;100.00;101195.81;5124335;29;20032;-82
2022/12/25 07:24:58;;;;;;;5.97;4.53;;;;;;;8.10;100.00;101202.56;5122499;29;20031;-80
2022/12/25 07:27:29;;;;;;;5.78;5.38;;;;;;;8.03;100.00;101169.59;5104236;29;20031;-81
2022/12/25 07:29:59;;;;;;;6.00;5.45;;;;;;;8.08;100.00;101188.53;5124131;29;20047;-83
2022/12/25 07:32:30;;;;;;;4.82;3.88;;;;;;;7.65;100.00;101120.75;5122346;29;20083;-83
2022/12/25 07:35:01;;;;;;;10.07;5.15;;;;;;;8.05;100.00;101177.44;5122201;29;20291;-82
2022/12/25 07:37:31;;;;;;;6.28;5.78;;;;;;;8.07;100.00;101202.22;5105716;29;20055;-82
2022/12/25 07:40:02;;;;;;;5.15;4.78;;;;;;;7.62;100.00;101135.47;5122223;29;20034;-82
2022/12/25 07:42:32;;;;;;;5.78;4.07;;;;;;;7.47;100.00;101123.53;5104544;29;20581;-83
2022/12/25 07:45:04;;;;;;;4.65;4.35;;;;;;;8.04;100.00;101233.09;5121648;29;20027;-82
2022/12/25 07:47:34;;;;;;;8.05;4.15;;;;;;;7.91;100.00;101225.22;5122058;29;20035;-83
2022/12/25 07:50:05;;;;;;;4.88;4.15;;;;;;;7.65;100.00;101204.91;5121596;29;20035;-80
2022/12/25 07:52:35;;;;;;;4.85;4.45;;;;;;;7.94;100.00;101250.84;5119378;29;20438;-81
2022/12/25 07:55:06;;;;;;;5.50;5.10;;;;;;;7.88;100.00;101231.03;5121115;29;20102;-82
2022/12/25 07:57:37;;;;;;;10.82;5.18;;;;;;;7.72;100.00;101224.47;5120523;29;20055;-81
2022/12/25 08:00:08;;;;;;;4.70;4.05;;;;;;;8.09;100.00;101267.34;5121810;29;20394;-82
2022/12/25 08:02:39;;;;;;;5.18;4.75;;;;;;;8.02;100.00;101266.66;5122737;29;20031;-81
2022/12/25 08:05:12;;;;;;;5.43;5.00;;;;;;;7.57;100.00;101199.03;5124162;29;20055;-82
2022/12/25 08:07:43;;;;;;;7.85;4.68;;;;;;;8.09;100.00;101275.41;5124857;29;20023;-82
2022/12/25 08:10:13;;;;;;;7.05;4.80;;;;;;;8.08;100.00;101298.03;5104048;29;20042;-83
2022/12/25 08:12:44;;;;;;;4.95;4.32;;;;;;;6.85;100.00;101067.34;5124401;29;20035;-83
2022/12/25 08:15:15;;;;;;;5.05;4.75;;;;;;;7.58;100.00;101196.09;5123851;29;20073;-83
2022/12/25 08:17:45;;;;;;;5.97;5.07;;;;;;;7.57;100.00;101191.78;5121859;29;20110;-84
2022/12/25 08:20:19;;;;;;;4.43;4.10;;;;;;;8.03;100.00;101282.56;5106231;29;20035;-84
2022/12/25 08:22:49;;;;;;;5.20;4.80;;;;;;;7.94;100.00;101288.47;5124086;29;20060;-81
2022/12/25 08:25:19;;;;;;;6.47;4.57;;;;;;;8.05;100.00;101317.28;5124119;29;20114;-80
2022/12/25 08:27:50;;;;;;;5.18;4.80;;;;;;;8.04;100.00;101305.72;5121701;29;20486;-82
2022/12/25 08:30:20;;;;;;;5.18;4.75;;;;;;;7.79;100.00;101267.38;5116218;29;20050;-82
2022/12/25 08:32:51;;;;;;;5.47;5.07;;;;;;;7.91;100.00;101289.75;5115110;29;20479;-83
2022/12/25 08:35:21;;;;;;;4.93;4.53;;;;;;;7.79;100.00;101268.22;5114744;29;20260;-83
2022/12/25 08:37:52;;;;;;;8.32;5.07;;;;;;;8.00;100.00;101299.16;5117285;29;20038;-84
2022/12/25 08:40:22;;;;;;;5.53;4.45;;;;;;;7.99;100.00;101296.69;5113158;29;20089;-83
2022/12/25 08:42:55;;;;;;;5.30;4.90;;;;;;;7.65;100.00;101234.47;5113869;29;20031;-83
2022/12/25 08:45:26;;;;;;;6.63;5.93;;;;;;;7.68;100.00;101227.81;5096638;29;20358;-83
2022/12/25 08:47:59;;;;;;;5.22;4.93;;;;;;;7.73;100.00;101239.53;5113562;29;20027;-84
2022/12/25 08:50:29;;;;;;;7.82;6.68;;;;;;;7.92;100.00;101263.69;5113361;29;20035;-84
2022/12/25 08:53:00;;;;;;;6.35;5.85;;;;;;;7.96;100.00;101264.88;5113166;29;20057;-83
2022/12/25 08:55:30;;;;;;;8.32;6.90;;;;;;;7.95;100.00;101247.91;5114650;29;20023;-84
2022/12/25 08:58:00;;;;;;;6.72;6.15;;;;;;;7.94;100.00;101240.91;5114932;29;20062;-83
2022/12/25 09:00:31;;;;;;;6.03;5.65;;;;;;;7.62;100.00;101193.78;5115516;29;20089;-85
2022/12/25 09:03:02;;;;;;;6.85;6.20;;;;;;;7.45;100.00;101183.69;5114854;29;20039;-82
2022/12/25 09:05:36;;;;;;;6.18;5.75;;;;;;;7.73;100.00;101242.22;5096711;29;20020;-83
2022/12/25 09:08:07;;;;;;;6.78;6.18;;;;;;;7.78;100.00;101249.63;5115303;29;20028;-84
2022/12/25 09:10:37;;;;;;;8.20;7.05;;;;;;;7.61;100.00;101230.59;5116819;29;20056;-83
2022/12/25 09:13:08;;;;;;;6.25;5.60;;;;;;;7.81;100.00;101233.00;5109100;29;20039;-83
2022/12/25 09:15:39;;;;;;;7.30;6.63;;;;;;;7.34;100.00;101148.69;5111903;29;20031;-82
2022/12/25 09:18:16;;;;;;;7.88;6.47;;;;;;;7.63;100.00;101192.75;5118050;29;20170;-84
2022/12/25 09:20:46;;;;;;;6.15;5.75;;;;;;;7.80;100.00;101213.38;5117700;29;20043;-84
2022/12/25 09:23:16;;;;;;;7.25;6.70;;;;;;;7.79;100.00;101195.63;5115510;29;20027;-81
2022/12/25 09:25:47;;;;;;;8.18;7.43;;;;;;;7.48;100.00;101146.66;5113850;29;20098;-82
2022/12/25 09:28:26;;;;;;;5.10;4.80;;;;;;;7.99;100.00;101237.53;5112333;29;20030;-85
2022/12/25 09:30:57;;;;;;;9.68;6.05;;;;;;;7.43;100.00;101150.84;5116135;29;20039;-83
2022/12/25 09:33:28;;;;;;;8.00;6.43;;;;;;;8.02;100.00;101243.25;5116111;29;20031;-83
2022/12/25 09:36:06;;;;;;;7.00;5.93;;;;;;;7.92;100.00;101210.72;5114309;29;20402;-84
2022/12/25 09:38:37;;;;;;;6.40;5.95;;;;;;;8.07;100.00;101229.94;5113547;29;20023;-84
2022/12/25 09:41:15;;;;;;;5.18;4.68;;;;;;;8.20;100.00;101230.78;5114224;29;20054;-84
2022/12/25 09:43:59;;;;;;;8.88;7.32;;;;;;;8.01;100.00;101193.22;5112048;29;20126;-84
2022/12/25 09:46:49;;;;;;;8.05;7.43;;;;;;;8.31;100.00;101217.34;5114552;29;20043;-82
2022/12/25 09:49:36;;;;;;;9.10;7.68;;;;;;;8.18;100.00;101187.16;5145245;23;20035;-84
2022/12/25 09:52:14;;;;;;;5.15;4.85;;;;;;;8.44;100.00;101202.88;5102189;29;20024;-84
2022/12/25 09:54:57;;;;;;;7.55;6.82;;;;;;;8.50;100.00;101201.94;5133622;29;20055;-85
2022/12/25 09:57:27;;;;;;;7.53;6.82;;;;;;;8.42;100.00;101180.75;5115831;29;20027;-84
2022/12/25 09:59:58;;;;;;;11.00;7.13;;;;;;;8.11;100.00;101136.97;5133187;29;20042;-85
2022/12/25 10:03:21;;;;;;;6.80;6.03;;;;;;;8.53;100.00;101200.66;5133249;29;20031;-84
2022/12/25 10:05:51;;;;;;;7.95;6.07;;;;;;;8.50;100.00;101201.94;5100788;29;20046;-84
2022/12/25 10:08:30;;;;;;;5.68;5.30;;;;;;;8.47;100.00;101199.72;5133079;29;20211;-85
2022/12/25 10:11:19;;;;;;;7.70;5.10;;;;;;;8.46;100.00;101206.97;5133497;29;20028;-85
2022/12/25 10:13:58;;;;;;;7.95;7.28;;;;;;;8.45;100.00;101199.94;5132669;29;20028;-86
2022/12/25 10:16:57;;;;;;;6.87;6.47;;;;;;;8.45;100.00;101201.81;5116063;29;20464;-85
2022/12/25 10:19:28;;;;;;;6.45;6.10;;;;;;;8.45;100.00;101194.56;5133167;29;20278;-85
2022/12/25 10:22:02;;;;;;;7.45;6.65;;;;;;;8.25;100.00;101160.97;5133548;29;20051;-85
2022/12/25 10:24:39;;;;;;;7.47;6.90;;;;;;;8.41;100.00;101188.00;5132862;29;20054;-85
2022/12/25 10:27:37;;;;;;;10.13;6.75;;;;;;;8.46;100.00;101195.38;5115654;29;20027;-84
2022/12/25 10:30:16;;;;;;;9.20;5.93;;;;;;;8.43;100.00;101185.91;5116020;29;20023;-86
2022/12/25 10:32:48;;;;;;;6.30;5.63;;;;;;;8.04;100.00;101119.31;5135622;28;20083;-86
2022/12/25 10:35:21;;;;;;;6.90;6.40;;;;;;;8.04;100.00;101112.06;5120655;29;20109;-84
2022/12/25 10:37:59;;;;;;;6.57;6.07;;;;;;;8.41;100.00;101174.56;5137406;29;20022;-84
2022/12/25 10:40:41;;;;;;;6.00;5.60;;;;;;;8.32;100.00;101154.44;5137114;29;20031;-86
2022/12/25 10:43:44;;;;;;;7.32;6.78;;;;;;;8.40;100.00;101159.47;5136959;29;20027;-86
2022/12/25 10:46:15;;;;;;;8.38;7.03;;;;;;;8.13;100.00;101107.13;5120335;29;20563;-86
2022/12/25 10:48:55;;;;;;;7.97;7.43;;;;;;;8.34;100.00;101138.06;5136578;29;20033;-85
2022/12/25 10:51:29;;;;;;;8.00;7.40;;;;;;;8.46;100.00;101153.16;5136706;29;20117;-85
2022/12/25 10:54:16;;;;;;;9.88;8.98;;;;;;;8.12;100.00;101106.31;5135100;29;20038;-85
2022/12/25 10:56:53;;;;;;;10.82;9.55;;;;;;;8.60;100.00;101161.81;5135714;29;20031;-84
2022/12/25 10:59:26;;;;;;;12.60;9.65;;;;;;;8.66;100.00;101154.69;5134788;29;20028;-85
2022/12/25 11:02:10;;;;;;;8.35;7.80;;;;;;;8.54;100.00;101125.06;5136851;29;20023;-86
2022/12/25 11:04:41;;;;;;;10.45;9.52;;;;;;;8.73;100.00;101140.00;5139300;29;20070;-85
2022/12/25 11:07:17;;;;;;;12.35;9.07;;;;;;;8.82;100.00;101128.88;5123130;29;20031;-85
2022/12/25 11:09:58;;;;;;;15.52;9.27;;;;;;;8.43;100.00;101056.72;5139084;29;20058;-84
2022/12/25 11:12:36;;;;;;;10.10;9.15;;;;;;;8.69;100.00;101078.78;5139633;29;20039;-85
2022/12/25 11:15:58;;;;;;;9.40;8.45;;;;;;;8.98;100.00;101107.38;5138600;29;20482;-85
2022/12/25 11:18:33;;;;;;;12.82;9.27;;;;;;;9.04;100.00;101106.44;5115112;29;20053;-84
2022/12/25 11:21:14;;;;;;;8.57;7.75;;;;;;;9.02;100.00;101110.44;5137781;29;20055;-84
2022/12/25 11:23:47;;;;;;;11.85;9.32;;;;;;;8.98;100.00;101095.78;5137904;29;20043;-84
2022/12/25 11:26:18;;;;;;;9.43;8.50;;;;;;;8.93;100.00;101093.84;5137742;29;20374;-84
2022/12/25 11:28:51;;;;;;;9.50;8.82;;;;;;;8.86;100.00;101066.22;5137814;29;20027;-84
2022/12/25 11:31:31;;;;;;;11.18;10.02;;;;;;;9.01;100.00;101090.75;5119908;29;20023;-84
2022/12/25 11:34:17;;;;;;;9.43;8.52;;;;;;;8.93;100.00;101064.22;5137443;29;20023;-84
2022/12/25 11:36:50;;;;;;;9.52;7.63;;;;;;;9.02;100.00;101081.63;5121130;29;20100;-84
2022/12/25 11:39:34;;;;;;;9.10;7.72;;;;;;;8.99;100.00;101087.47;5125962;29;20413;-83
2022/12/25 11:42:13;;;;;;;8.80;7.93;;;;;;;8.94;100.00;101084.72;5136574;29;20106;-84
2022/12/25 11:45:10;;;;;;;12.05;10.85;;;;;;;8.98;100.00;101085.03;5138225;28;20086;-83
2022/12/25 11:47:50;;;;;;;11.68;8.68;;;;;;;8.70;100.00;101030.09;5120668;29;20484;-83
2022/12/25 11:50:29;;;;;;;;;;;;;;;9.03;100.00;101085.13;5142292;29;20059;-84
2022/12/25 11:53:04;;;;;;;9.67;8.40;;;;;;;8.95;100.00;101078.25;5146472;29;19981;-84
2022/12/25 11:55:45;;;;;;;9.77;8.90;;;;;;;9.02;100.00;101076.22;5128658;29;20027;-84
2022/12/25 11:58:23;;;;;;;10.52;9.35;;;;;;;8.96;100.00;101065.59;5145243;29;20023;-84
2022/12/25 12:00:56;;;;;;;9.90;9.00;;;;;;;8.87;100.00;101050.88;5145260;29;20042;-84
2022/12/25 12:03:32;;;;;;;11.88;10.55;;;;;;;8.77;100.00;101030.78;5145221;29;20023;-84
2022/12/25 12:06:28;;;;;;;11.68;10.77;;;;;;;8.70;100.00;101003.16;5139291;29;20067;-84
2022/12/25 12:09:37;;;;;;;14.45;13.32;;;;;;;8.96;100.00;101050.25;5139761;29;20042;-84
2022/12/25 12:12:20;;;;;;;13.15;12.25;;;;;;;9.04;100.00;101065.22;5141873;29;20568;-85
2022/12/25 12:14:50;;;;;;;16.17;13.48;;;;;;;9.04;100.00;101073.28;5143257;29;20027;-84
2022/12/25 12:17:21;;;;;;;13.73;12.73;;;;;;;9.00;100.00;101070.25;5125785;29;20070;-84
2022/12/25 12:19:51;;;;;;;12.77;11.68;;;;;;;9.01;100.00;101041.44;5140575;29;20031;-85
2022/12/25 12:22:25;;;;;;;10.73;9.73;;;;;;;9.06;100.00;101050.44;5138963;29;20105;-86
2022/12/25 12:25:04;;;;;;;11.85;10.43;;;;;;;8.65;100.00;100983.44;5135011;29;20497;-85
2022/12/25 12:27:39;;;;;;;11.32;10.13;;;;;;;9.00;100.00;101027.16;5136285;29;20027;-85
2022/12/25 12:30:22;;;;;;;12.43;11.43;;;;;;;9.07;100.00;101032.41;5120971;29;20449;-84
2022/12/25 12:32:58;;;;;;;10.57;9.75;;;;;;;9.03;100.00;101040.16;5120571;29;20023;-85
2022/12/25 12:35:35;;;;;;;12.55;11.05;;;;;;;9.02;100.00;101027.75;5141111;29;20037;-84
2022/12/25 12:38:20;;;;;;;11.40;10.43;;;;;;;8.99;100.00;101024.72;5140734;29;20393;-84
2022/12/25 12:41:02;;;;;;;11.77;10.68;;;;;;;9.12;100.00;101052.19;5140290;29;20031;-84
2022/12/25 12:43:41;;;;;;;10.88;9.95;;;;;;;9.13;100.00;101040.34;5139277;29;20046;-84
2022/12/25 12:46:39;;;;;;;10.93;9.93;;;;;;;9.15;100.00;101023.94;5135593;29;20385;-85
2022/12/25 12:49:23;;;;;;;9.98;9.27;;;;;;;8.67;100.00;100947.09;5135244;29;20584;-84
2022/12/25 12:52:09;;;;;;;10.48;9.63;;;;;;;9.18;100.00;101015.38;5135052;29;20031;-84
2022/12/25 12:54:58;;;;;;;10.05;9.35;;;;;;;9.20;100.00;101015.94;5135269;28;20027;-84
2022/12/25 12:57:38;;;;;;;10.70;9.88;;;;;;;9.19;100.00;101011.63;5135300;29;20131;-84
2022/12/25 13:00:15;;;;;;;12.00;11.05;;;;;;;9.16;100.00;100989.72;5135903;29;20027;-84
2022/12/25 13:02:54;;;;;;;11.57;10.68;;;;;;;9.09;100.00;100990.69;5118890;29;20034;-84
2022/12/25 13:05:51;;;;;;;9.07;8.38;;;;;;;9.14;100.00;100990.78;5135333;29;20031;-84
2022/12/25 13:08:24;;;;;;;10.57;9.48;;;;;;;9.16;100.00;100989.72;5135098;29;20268;-84
2022/12/25 13:11:21;;;;;;;9.95;9.15;;;;;;;9.14;100.00;100992.66;5117671;29;20445;-84
2022/12/25 13:13:54;;;;;;;10.23;9.20;;;;;;;9.11;100.00;100993.16;5118345;29;20516;-84
2022/12/25 13:16:29;;;;;;;9.10;8.48;;;;;;;8.90;100.00;100954.28;5134994;29;20153;-84
2022/12/25 13:19:05;;;;;;;12.15;11.07;;;;;;;9.06;100.00;100984.97;5117904;29;20035;-84
2022/12/25 13:21:35;;;;;;;11.48;9.68;;;;;;;8.97;100.00;100956.78;5135450;29;20027;-83
2022/12/25 13:24:19;;;;;;;12.68;11.38;;;;;;;8.88;100.00;100934.03;5134669;29;20173;-84
2022/12/25 13:26:50;;;;;;;12.15;11.15;;;;;;;8.91;100.00;100934.38;5134850;29;20038;-84
2022/12/25 13:29:32;;;;;;;14.13;12.88;;;;;;;9.03;100.00;100963.91;5134086;29;20047;-84
2022/12/25 13:32:05;;;;;;;15.82;14.07;;;;;;;8.52;100.00;100881.44;5134307;29;20027;-84
2022/12/25 13:34:38;;;;;;;17.42;15.57;;;;;;;8.79;100.00;100930.91;5134095;29;20043;-84
2022/12/25 13:37:13;;;;;;;15.60;14.13;;;;;;;8.96;100.00;100952.47;5135266;29;20367;-84
2022/12/25 13:39:53;;;;;;;14.98;13.68;;;;;;;8.95;100.00;100951.66;5134805;29;20038;-84
2022/12/25 13:42:36;;;;;;;15.88;14.23;;;;;;;8.79;100.00;100936.28;5133348;29;20085;-84
2022/12/25 13:45:13;;;;;;;31.38;17.38;;;;;;;8.92;100.00;100951.34;5133852;29;20038;-84